createdAt,value
2019-04-29T00:02:00.949Z,5.42
2019-04-29T00:04:27.676Z,5.22
2019-04-29T00:06:54.305Z,4.95
2019-04-29T00:09:21.351Z,5.50
2019-04-29T00:11:47.998Z,5.72
2019-04-29T00:14:15.990Z,6.10
2019-04-29T00:16:46.997Z,5.83
2019-04-29T00:19:15.410Z,6.33
2019-04-29T00:21:42.058Z,6.05
2019-04-29T00:24:08.729Z,6.78
2019-04-29T00:26:36.181Z,6.37
2019-04-29T00:29:02.963Z,6.78
2019-04-29T00:31:29.915Z,6.65
2019-04-29T00:33:56.566Z,7.05
2019-04-29T00:36:25.078Z,6.22
2019-04-29T00:39:10.403Z,5.60
2019-04-29T00:41:49.420Z,6.28
2019-04-29T00:44:17.427Z,5.95
2019-04-29T00:46:44.676Z,5.75
2019-04-29T00:49:11.601Z,5.97
2019-04-29T00:51:38.247Z,6.22
2019-04-29T00:54:06.676Z,5.92
2019-04-29T00:56:33.302Z,6.22
2019-04-29T00:59:00.475Z,5.62
2019-04-29T01:01:27.172Z,6.05
2019-04-29T01:03:54.023Z,6.22
2019-04-29T01:06:20.675Z,6.12
2019-04-29T01:08:47.322Z,6.92
2019-04-29T01:11:14.434Z,6.75
2019-04-29T01:13:44.026Z,6.83
2019-04-29T01:16:10.962Z,6.60
2019-04-29T01:18:38.513Z,6.78
2019-04-29T01:21:05.197Z,6.08
2019-04-29T01:23:31.812Z,6.15
2019-04-29T01:26:00.223Z,6.28
2019-04-29T01:28:33.291Z,6.45
2019-04-29T01:31:03.107Z,7.05
2019-04-29T01:33:29.717Z,6.12
2019-04-29T01:36:05.270Z,6.22
2019-04-29T01:38:31.880Z,6.17
2019-04-29T01:41:19.152Z,7.25
2019-04-29T01:43:58.414Z,6.40
2019-04-29T01:46:25.418Z,6.97
2019-04-29T01:48:52.023Z,7.17
2019-04-29T01:51:18.627Z,7.45
2019-04-29T01:53:45.312Z,7.30
2019-04-29T01:56:12.057Z,7.05
2019-04-29T01:58:39.551Z,7.50
2019-04-29T02:01:06.418Z,7.20
2019-04-29T02:03:34.911Z,7.53
2019-04-29T02:06:01.627Z,6.20
2019-04-29T02:08:28.431Z,6.45
2019-04-29T02:10:55.069Z,6.87
2019-04-29T02:13:21.896Z,7.62
2019-04-29T02:15:48.550Z,7.47
2019-04-29T02:18:15.316Z,6.40
2019-04-29T02:20:41.944Z,7.08
2019-04-29T02:23:10.571Z,6.90
2019-04-29T02:25:41.531Z,7.85
2019-04-29T02:28:10.018Z,6.80
2019-04-29T02:30:43.200Z,6.97
2019-04-29T02:33:09.905Z,7.33
2019-04-29T02:35:36.519Z,7.55
2019-04-29T02:38:04.941Z,7.35
2019-04-29T02:40:42.399Z,7.03
2019-04-29T02:43:16.657Z,7.78
2019-04-29T02:45:43.391Z,8.10
2019-04-29T02:48:09.994Z,7.60
2019-04-29T02:50:37.694Z,7.67
2019-04-29T02:53:04.326Z,7.62
2019-04-29T02:55:32.761Z,7.58
2019-04-29T02:58:12.434Z,7.75
2019-04-29T03:00:44.748Z,7.03
2019-04-29T03:03:25.601Z,7.47
2019-04-29T03:05:54.127Z,6.87
2019-04-29T03:08:22.925Z,7.22
2019-04-29T03:10:49.667Z,6.80
2019-04-29T03:13:19.056Z,7.50
2019-04-29T03:15:46.192Z,7.72
2019-04-29T03:18:15.248Z,7.25
2019-04-29T03:20:44.007Z,6.67
2019-04-29T03:23:15.490Z,6.85
2019-04-29T03:25:42.115Z,7.50
2019-04-29T03:28:08.734Z,6.95
2019-04-29T03:30:35.411Z,7.45
2019-04-29T03:33:02.028Z,6.78
2019-04-29T03:35:28.822Z,6.45
2019-04-29T03:37:55.521Z,6.00
2019-04-29T03:40:22.269Z,5.97
2019-04-29T03:42:48.931Z,5.37
2019-04-29T03:45:15.598Z,5.67
2019-04-29T03:47:42.211Z,4.95
2019-04-29T03:50:08.820Z,4.42
2019-04-29T03:52:35.501Z,4.62
2019-04-29T03:55:02.508Z,4.90
2019-04-29T03:57:31.016Z,4.65
2019-04-29T03:59:57.710Z,5.92
2019-04-29T04:02:26.186Z,4.72
2019-04-29T04:05:01.060Z,5.35
2019-04-29T04:07:38.440Z,5.20
2019-04-29T04:10:06.609Z,4.72
2019-04-29T04:12:33.230Z,5.33
2019-04-29T04:15:00.964Z,4.95
2019-04-29T04:17:46.180Z,5.00
2019-04-29T04:20:13.455Z,4.75
2019-04-29T04:25:55.611Z,5.95
2019-04-29T04:28:31.836Z,5.83
2019-04-29T04:30:58.597Z,5.47
2019-04-29T04:33:25.189Z,5.17
2019-04-29T04:35:51.841Z,5.00
2019-04-29T04:38:19.224Z,4.85
2019-04-29T04:40:47.631Z,5.37
2019-04-29T04:43:14.309Z,5.05
2019-04-29T04:45:40.938Z,5.92
2019-04-29T04:48:09.817Z,5.08
2019-04-29T04:50:36.467Z,5.40
2019-04-29T04:53:03.660Z,5.70
2019-04-29T04:55:32.533Z,6.17
2019-04-29T04:57:59.318Z,6.28
2019-04-29T05:00:27.806Z,6.95
2019-04-29T05:02:54.435Z,6.08
2019-04-29T05:05:21.180Z,6.95
2019-04-29T05:07:47.801Z,7.50
2019-04-29T05:10:14.658Z,7.17
2019-04-29T05:12:41.669Z,7.35
2019-04-29T05:15:09.020Z,7.30
2019-04-29T05:17:35.649Z,7.55
2019-04-29T05:20:06.117Z,8.33
2019-04-29T05:22:32.711Z,8.80
2019-04-29T05:24:59.611Z,7.37
2019-04-29T05:27:29.917Z,7.37
2019-04-29T05:29:56.530Z,6.97
2019-04-29T05:32:24.498Z,6.80
2019-04-29T05:34:54.993Z,6.87
2019-04-29T05:37:26.391Z,6.30
2019-04-29T05:39:54.103Z,5.60
2019-04-29T05:42:20.779Z,5.25
2019-04-29T05:45:04.347Z,5.03
2019-04-29T05:47:35.583Z,4.78
2019-04-29T05:50:20.238Z,5.00
2019-04-29T05:52:51.255Z,5.05
2019-04-29T05:55:17.889Z,5.53
2019-04-29T05:57:47.461Z,4.72
2019-04-29T06:00:14.479Z,5.25
2019-04-29T06:02:41.076Z,4.90
2019-04-29T06:05:07.991Z,4.17
2019-04-29T06:07:34.644Z,4.97
2019-04-29T06:10:01.253Z,4.65
2019-04-29T06:12:27.891Z,3.77
2019-04-29T06:14:54.556Z,3.92
2019-04-29T06:17:21.317Z,3.85
2019-04-29T06:19:48.016Z,4.62
2019-04-29T06:22:15.942Z,4.47
2019-04-29T06:24:42.585Z,3.83
2019-04-29T06:27:09.235Z,3.62
2019-04-29T06:29:36.322Z,3.55
2019-04-29T06:32:03.075Z,3.50
2019-04-29T06:34:29.729Z,4.12
2019-04-29T06:36:56.412Z,3.92
2019-04-29T06:39:24.805Z,3.47
2019-04-29T06:41:51.432Z,3.65
2019-04-29T06:44:18.156Z,4.15
2019-04-29T06:46:44.790Z,4.05
2019-04-29T06:49:11.459Z,4.33
2019-04-29T06:51:38.098Z,4.00
2019-04-29T06:54:04.711Z,3.65
2019-04-29T06:56:31.354Z,3.95
2019-04-29T06:58:58.067Z,3.40
2019-04-29T07:01:24.701Z,2.92
2019-04-29T07:03:51.368Z,2.72
2019-04-29T07:06:18.041Z,2.90
2019-04-29T07:08:44.744Z,2.25
2019-04-29T07:11:11.493Z,3.10
2019-04-29T07:13:38.120Z,2.80
2019-04-29T07:16:05.660Z,2.60
2019-04-29T07:18:32.251Z,2.62
2019-04-29T07:20:59.828Z,3.20
2019-04-29T07:23:26.449Z,2.17
2019-04-29T07:25:53.584Z,2.58
2019-04-29T07:28:20.335Z,2.98
2019-04-29T07:31:00.919Z,2.27
2019-04-29T07:33:22.135Z,2.27
2019-04-29T07:35:47.963Z,2.77
2019-04-29T07:38:15.482Z,2.62
2019-04-29T07:40:43.390Z,2.95
2019-04-29T07:43:11.143Z,3.05
2019-04-29T07:45:45.493Z,3.00
2019-04-29T07:48:12.323Z,2.42
2019-04-29T07:50:38.932Z,2.60
2019-04-29T07:53:05.506Z,2.95
2019-04-29T07:55:32.575Z,2.83
2019-04-29T07:57:59.537Z,2.50
2019-04-29T08:00:33.794Z,2.40
2019-04-29T08:03:01.720Z,3.08
2019-04-29T08:05:28.682Z,3.10
2019-04-29T08:07:56.266Z,2.77
2019-04-29T08:10:24.039Z,3.02
2019-04-29T08:12:52.648Z,3.02
2019-04-29T08:15:19.375Z,3.20
2019-04-29T08:17:46.059Z,2.83
2019-04-29T08:20:15.813Z,3.15
2019-04-29T08:22:42.463Z,2.80
2019-04-29T08:25:09.182Z,2.87
2019-04-29T08:27:40.754Z,2.50
2019-04-29T08:30:06.728Z,2.50
2019-04-29T08:32:36.350Z,2.47
2019-04-29T08:35:05.101Z,2.80
2019-04-29T08:37:31.725Z,2.77
2019-04-29T08:40:14.865Z,2.37
2019-04-29T08:42:28.766Z,2.50
2019-04-29T08:44:59.775Z,2.55
2019-04-29T08:47:31.532Z,2.05
2019-04-29T08:49:56.117Z,2.40
2019-04-29T08:52:22.787Z,1.98
2019-04-29T08:54:55.270Z,2.25
2019-04-29T08:57:19.787Z,2.30
2019-04-29T08:59:47.615Z,1.95
2019-04-29T09:02:14.244Z,2.22
2019-04-29T09:04:52.878Z,2.20
2019-04-29T09:07:12.715Z,1.70
2019-04-29T09:09:40.803Z,1.85
2019-04-29T09:12:07.471Z,1.80
2019-04-29T09:14:35.935Z,1.57
2019-04-29T09:17:06.133Z,2.35
2019-04-29T09:19:31.185Z,1.70
2019-04-29T09:21:59.700Z,2.00
2019-04-29T09:24:28.885Z,2.33
2019-04-29T09:26:57.304Z,2.30
2019-04-29T09:29:29.491Z,2.17
2019-04-29T09:31:56.205Z,2.00
2019-04-29T09:34:26.426Z,1.62
2019-04-29T09:36:54.630Z,1.85
2019-04-29T09:39:41.901Z,2.00
2019-04-29T09:42:03.574Z,1.57
2019-04-29T09:44:44.756Z,2.20
2019-04-29T09:47:14.463Z,1.80
2019-04-29T09:49:44.459Z,1.70
2019-04-29T09:52:16.218Z,1.72
2019-04-29T09:54:45.350Z,1.57
2019-04-29T09:57:13.158Z,1.98
2019-04-29T09:59:43.732Z,1.67
2019-04-29T10:02:31.376Z,2.20
2019-04-29T10:05:19.403Z,1.60
2019-04-29T10:07:46.775Z,1.62
2019-04-29T10:10:13.974Z,1.87
2019-04-29T10:12:41.293Z,1.90
2019-04-29T10:15:11.969Z,2.17
2019-04-29T10:17:45.826Z,1.80
2019-04-29T10:20:19.865Z,1.52
2019-04-29T10:22:50.286Z,2.27
2019-04-29T10:25:15.103Z,1.70
2019-04-29T10:27:41.811Z,1.60
2019-04-29T10:30:10.568Z,1.98
2019-04-29T10:32:37.818Z,1.90
2019-04-29T10:35:08.910Z,2.10
2019-04-29T10:37:37.568Z,2.60
2019-04-29T10:40:16.040Z,2.27
2019-04-29T10:42:44.439Z,2.20
2019-04-29T10:45:13.211Z,2.12
2019-04-29T10:47:44.723Z,2.17
2019-04-29T10:50:15.826Z,2.00
2019-04-29T10:52:43.490Z,2.27
2019-04-29T10:55:10.829Z,1.87
2019-04-29T10:57:38.792Z,2.55
2019-04-29T11:00:10.410Z,2.30
2019-04-29T11:02:38.645Z,2.45
2019-04-29T11:05:18.302Z,2.37
2019-04-29T11:07:46.853Z,2.15
2019-04-29T11:10:28.353Z,1.95
2019-04-29T11:12:57.279Z,2.40
2019-04-29T11:15:29.370Z,2.37
2019-04-29T11:17:59.138Z,2.17
2019-04-29T11:20:23.451Z,2.87
2019-04-29T11:22:51.897Z,2.00
2019-04-29T11:25:29.388Z,2.65
2019-04-29T11:27:57.760Z,2.42
2019-04-29T11:30:26.158Z,2.52
2019-04-29T11:33:13.591Z,2.58
2019-04-29T11:35:48.280Z,2.95
2019-04-29T11:38:16.834Z,2.45
2019-04-29T11:40:44.635Z,3.12
2019-04-29T11:43:15.704Z,2.30
2019-04-29T11:45:41.027Z,2.60
2019-04-29T11:48:07.619Z,2.80
2019-04-29T11:50:45.123Z,2.92
2019-04-29T11:53:12.545Z,2.65
2019-04-29T11:55:42.702Z,3.10
2019-04-29T11:58:13.035Z,3.30
2019-04-29T12:00:53.700Z,3.20
2019-04-29T12:03:22.240Z,3.02
2019-04-29T12:05:56.487Z,3.05
2019-04-29T12:08:23.144Z,2.80
2019-04-29T12:11:05.976Z,2.80
2019-04-29T12:13:27.136Z,3.37
2019-04-29T12:16:09.205Z,3.00
2019-04-29T12:18:56.784Z,3.20
2019-04-29T12:21:29.989Z,3.15
2019-04-29T12:23:58.411Z,3.08
2019-04-29T12:26:25.515Z,2.90
2019-04-29T12:28:52.353Z,3.55
2019-04-29T12:31:26.377Z,2.90
2019-04-29T12:33:55.991Z,3.05
2019-04-29T12:36:22.970Z,3.45
2019-04-29T12:38:54.270Z,3.40
2019-04-29T12:41:30.349Z,3.20
2019-04-29T12:43:59.801Z,3.65
2019-04-29T12:46:29.516Z,3.30
2019-04-29T12:49:03.549Z,3.62
2019-04-29T12:51:28.586Z,3.80
2019-04-29T12:53:55.396Z,3.70
2019-04-29T12:56:27.038Z,3.27
2019-04-29T12:58:59.259Z,3.90
2019-04-29T13:01:51.057Z,3.72
2019-04-29T13:04:20.077Z,3.67
2019-04-29T13:06:50.174Z,4.25
2019-04-29T13:09:35.386Z,3.75
2019-04-29T13:12:17.656Z,3.20
2019-04-29T13:14:34.865Z,4.22
2019-04-29T13:17:14.380Z,4.50
2019-04-29T13:19:41.640Z,3.95
2019-04-29T13:22:10.604Z,3.85
2019-04-29T13:24:42.716Z,3.75
2019-04-29T13:27:16.379Z,4.50
2019-04-29T13:29:41.384Z,4.03
2019-04-29T13:32:10.284Z,4.20
2019-04-29T13:34:40.576Z,3.72
2019-04-29T13:37:18.386Z,3.75
2019-04-29T13:39:40.114Z,4.55
2019-04-29T13:42:09.017Z,4.45
2019-04-29T13:44:41.693Z,4.85
2019-04-29T13:47:28.869Z,5.30
2019-04-29T13:50:18.014Z,4.92
2019-04-29T13:52:34.140Z,5.42
2019-04-29T13:55:16.677Z,4.55
2019-04-29T13:57:29.747Z,4.37
2019-04-29T14:00:15.160Z,4.60
2019-04-29T14:02:58.526Z,4.90
2019-04-29T14:05:17.096Z,4.22
2019-04-29T14:07:43.729Z,4.08
2019-04-29T14:10:14.854Z,4.72
2019-04-29T14:12:48.303Z,4.72
2019-04-29T14:15:07.806Z,3.95
2019-04-29T14:17:35.614Z,4.20
2019-04-29T14:20:05.751Z,4.60
2019-04-29T14:22:34.157Z,3.80
2019-04-29T14:25:03.019Z,3.45
2019-04-29T14:27:29.788Z,3.42
2019-04-29T14:29:56.481Z,3.80
2019-04-29T14:32:34.490Z,3.58
2019-04-29T14:34:56.643Z,3.85
2019-04-29T14:37:25.689Z,3.85
2019-04-29T14:39:52.449Z,4.95
2019-04-29T14:42:30.169Z,4.15
2019-04-29T14:44:57.542Z,3.58
2019-04-29T14:47:28.577Z,3.67
2019-04-29T14:49:56.962Z,3.50
2019-04-29T14:52:23.564Z,3.60
2019-04-29T14:54:52.071Z,3.72
2019-04-29T14:57:19.041Z,3.22
2019-04-29T14:59:46.360Z,3.00
2019-04-29T15:02:19.209Z,3.02
2019-04-29T15:04:48.785Z,3.35
2019-04-29T15:07:16.995Z,2.92
2019-04-29T15:09:55.695Z,3.10
2019-04-29T15:12:51.210Z,2.90
2019-04-29T15:15:21.399Z,2.75
2019-04-29T15:17:59.903Z,2.87
2019-04-29T15:20:39.205Z,2.55
2019-04-29T15:23:07.786Z,2.95
2019-04-29T15:25:35.609Z,2.98
2019-04-29T15:28:03.345Z,3.27
2019-04-29T15:30:36.733Z,3.90
2019-04-29T15:33:02.141Z,4.87
2019-04-29T15:35:29.466Z,3.98
2019-04-29T15:37:56.836Z,3.65
2019-04-29T15:40:26.032Z,3.72
2019-04-29T15:42:54.147Z,2.75
2019-04-29T15:45:20.970Z,2.85
2019-04-29T15:47:49.685Z,2.40
2019-04-29T15:50:19.440Z,2.60
2019-04-29T15:52:48.114Z,2.83
2019-04-29T15:55:17.385Z,2.65
2019-04-29T15:57:49.566Z,2.50
2019-04-29T16:00:22.159Z,3.00
2019-04-29T16:02:43.804Z,2.40
2019-04-29T16:05:32.797Z,2.45
2019-04-29T16:08:18.124Z,2.40
2019-04-29T16:10:57.835Z,2.62
2019-04-29T16:13:27.762Z,2.50
2019-04-29T16:15:52.625Z,2.50
2019-04-29T16:18:19.284Z,2.67
2019-04-29T16:20:53.934Z,2.22
2019-04-29T16:23:18.143Z,2.58
2019-04-29T16:25:46.346Z,3.25
2019-04-29T16:28:14.558Z,3.25
2019-04-29T16:30:41.933Z,2.90
2019-04-29T16:33:13.947Z,3.05
2019-04-29T16:35:42.825Z,2.83
2019-04-29T16:38:14.380Z,3.15
2019-04-29T16:40:47.942Z,2.87
2019-04-29T16:43:16.509Z,3.67
2019-04-29T16:46:01.478Z,3.52
2019-04-29T16:48:30.469Z,3.42
2019-04-29T16:50:58.277Z,3.67
2019-04-29T16:53:25.414Z,2.75
2019-04-29T16:55:53.112Z,3.10
2019-04-29T16:58:21.008Z,3.10
2019-04-29T17:00:53.025Z,2.92
2019-04-29T17:03:17.359Z,2.95
2019-04-29T17:05:44.018Z,3.12
2019-04-29T17:08:15.037Z,2.37
2019-04-29T17:10:57.698Z,2.42
2019-04-29T17:13:24.371Z,2.47
2019-04-29T17:15:53.750Z,2.60
2019-04-29T17:18:22.916Z,2.47
2019-04-29T17:20:49.540Z,2.65
2019-04-29T17:23:23.886Z,3.17
2019-04-29T17:25:45.930Z,3.08
2019-04-29T17:28:25.718Z,3.20
2019-04-29T17:31:11.634Z,3.17
2019-04-29T17:33:49.174Z,3.08
2019-04-29T17:36:12.061Z,3.00
2019-04-29T17:38:40.487Z,3.08
2019-04-29T17:41:09.204Z,3.58
2019-04-29T17:43:54.637Z,3.17
2019-04-29T17:46:31.133Z,3.20
2019-04-29T17:49:00.140Z,3.45
2019-04-29T17:51:29.342Z,3.17
2019-04-29T17:54:00.759Z,3.25
2019-04-29T17:56:35.089Z,3.05
2019-04-29T17:59:08.378Z,3.17
2019-04-29T18:01:46.811Z,3.92
2019-04-29T18:04:16.735Z,3.62
2019-04-29T18:06:58.949Z,3.40
2019-04-29T18:09:26.992Z,3.40
2019-04-29T18:11:57.589Z,3.08
2019-04-29T18:14:22.354Z,3.90
2019-04-29T18:16:49.030Z,6.35
2019-04-29T18:19:19.323Z,13.95
2019-04-29T18:21:48.152Z,21.52
2019-04-29T18:24:34.165Z,32.40
2019-04-29T18:27:10.100Z,49.88
2019-04-29T18:29:41.643Z,25.15
2019-04-29T18:32:08.060Z,16.70
2019-04-29T18:34:37.387Z,14.70
2019-04-29T18:37:06.523Z,11.50
2019-04-29T18:39:34.522Z,13.18
2019-04-29T18:42:03.102Z,12.07
2019-04-29T18:44:29.813Z,11.70
2019-04-29T18:46:58.234Z,15.18
2019-04-29T18:49:28.027Z,13.30
2019-04-29T18:51:57.916Z,11.25
2019-04-29T18:54:25.403Z,9.40
2019-04-29T18:56:52.119Z,9.73
2019-04-29T18:59:21.340Z,9.38
2019-04-29T19:01:47.513Z,9.75
2019-04-29T19:04:19.269Z,9.40
2019-04-29T19:06:51.215Z,9.95
2019-04-29T19:09:20.917Z,8.70
2019-04-29T19:11:47.752Z,9.23
2019-04-29T19:14:20.529Z,10.48
2019-04-29T19:16:46.834Z,10.60
2019-04-29T19:19:15.485Z,8.45
2019-04-29T19:21:45.526Z,9.48
2019-04-29T19:24:13.545Z,8.00
2019-04-29T19:26:42.616Z,8.43
2019-04-29T19:29:09.759Z,7.90
2019-04-29T19:31:45.901Z,8.18
2019-04-29T19:34:18.672Z,7.30
2019-04-29T19:36:45.202Z,8.40
2019-04-29T19:39:16.899Z,8.55
2019-04-29T19:41:42.381Z,9.55
2019-04-29T19:44:11.417Z,9.28
2019-04-29T19:46:41.164Z,8.60
2019-04-29T19:49:09.805Z,9.03
2019-04-29T19:51:39.275Z,9.13
2019-04-29T19:54:07.302Z,8.83
2019-04-29T19:56:36.128Z,9.05
2019-04-29T19:59:11.874Z,10.23
2019-04-29T20:01:37.882Z,10.20
2019-04-29T20:04:19.874Z,10.38
2019-04-29T20:06:41.991Z,10.28
2019-04-29T20:09:17.250Z,10.05
2019-04-29T20:11:42.443Z,9.95
2019-04-29T20:14:19.254Z,9.43
2019-04-29T20:16:54.499Z,11.80
2019-04-29T20:19:18.015Z,10.20
2019-04-29T20:21:46.103Z,12.13
2019-04-29T20:24:15.610Z,10.45
2019-04-29T20:26:46.464Z,11.83
2019-04-29T20:29:12.985Z,11.30
2019-04-29T20:31:48.718Z,11.08
2019-04-29T20:34:08.843Z,11.33
2019-04-29T20:36:41.666Z,10.05
2019-04-29T20:39:06.896Z,10.08
2019-04-29T20:41:41.151Z,10.60
2019-04-29T20:44:09.152Z,9.98
2019-04-29T20:46:45.064Z,10.60
2019-04-29T20:49:05.859Z,11.12
2019-04-29T20:51:48.663Z,11.33
2019-04-29T20:54:31.852Z,8.93
2019-04-29T20:57:17.396Z,11.88
2019-04-29T20:59:36.234Z,13.00
2019-04-29T21:02:12.246Z,11.60
2019-04-29T21:04:44.685Z,10.13
2019-04-29T21:07:02.867Z,10.55
2019-04-29T21:09:30.337Z,11.45
2019-04-29T21:12:13.046Z,11.68
2019-04-29T21:14:50.875Z,10.40
2019-04-29T21:17:28.746Z,10.50
2019-04-29T21:19:46.680Z,11.10
2019-04-29T21:22:20.288Z,11.57
2019-04-29T21:24:41.931Z,11.57
2019-04-29T21:27:08.550Z,10.13
2019-04-29T21:29:37.048Z,9.83
2019-04-29T21:32:05.688Z,9.98
2019-04-29T21:34:38.494Z,10.20
2019-04-29T21:37:21.641Z,11.03
2019-04-29T21:39:59.038Z,10.63
2019-04-29T21:42:35.670Z,10.23
2019-04-29T21:45:03.970Z,9.55
2019-04-29T21:47:41.756Z,10.23
2019-04-29T21:49:59.779Z,10.72
2019-04-29T21:52:26.390Z,10.03
2019-04-29T21:54:54.553Z,9.95
2019-04-29T21:57:23.985Z,10.55
2019-04-29T21:59:51.295Z,10.32
2019-04-29T22:02:19.867Z,10.65
2019-04-29T22:04:57.182Z,9.78
2019-04-29T22:07:25.680Z,9.65
2019-04-29T22:09:52.422Z,10.80
2019-04-29T22:12:20.391Z,10.72
2019-04-29T22:14:52.507Z,10.88
2019-04-29T22:17:16.291Z,10.63
2019-04-29T22:19:45.013Z,10.60
2019-04-29T22:22:11.676Z,10.85
2019-04-29T22:24:39.816Z,10.58
2019-04-29T22:27:08.242Z,10.93
2019-04-29T22:29:37.299Z,11.10
2019-04-29T22:32:14.152Z,11.80
2019-04-29T22:34:36.964Z,11.20
2019-04-29T22:37:06.258Z,12.18
2019-04-29T22:39:32.852Z,10.90
2019-04-29T22:42:08.571Z,11.43
2019-04-29T22:44:36.038Z,10.70
2019-04-29T22:47:05.580Z,11.95
2019-04-29T22:49:32.745Z,12.07
2019-04-29T22:51:59.532Z,11.80
2019-04-29T22:54:27.604Z,11.00
2019-04-29T22:56:56.586Z,11.05
2019-04-29T22:59:27.502Z,11.03
2019-04-29T23:01:56.487Z,8.35
2019-04-29T23:04:24.917Z,10.82
2019-04-29T23:06:51.737Z,11.63
2019-04-29T23:09:20.518Z,11.15
2019-04-29T23:11:47.592Z,10.98
2019-04-29T23:14:15.249Z,11.85
2019-04-29T23:16:45.485Z,11.57
2019-04-29T23:19:17.754Z,10.90
2019-04-29T23:22:01.528Z,11.03
2019-04-29T23:24:30.743Z,11.60
2019-04-29T23:26:57.513Z,11.00
2019-04-29T23:29:25.501Z,11.90
2019-04-29T23:31:59.751Z,11.68
2019-04-29T23:34:27.802Z,11.97
2019-04-29T23:36:52.753Z,11.57
2019-04-29T23:39:19.374Z,11.43
2019-04-29T23:41:46.034Z,10.93
2019-04-29T23:44:12.688Z,10.15
2019-04-29T23:46:40.342Z,12.47
2019-04-29T23:49:06.974Z,13.83
2019-04-29T23:51:37.487Z,16.57
2019-04-29T23:54:11.072Z,16.27
2019-04-29T23:56:56.608Z,17.55
2019-04-29T23:59:27.766Z,17.60
